Little Indian, Illinois
Current Conditions -  °F | °C
As of 2:15 PM on Sunday 23 Nov 2014 (Local Time) from KIJX Reporting Station
Light Rain Light Rain  
Wind Chill: 55°   Ceiling: 600
Heat Index: 55°   Visibility: 7mi
Dew Point: 52°   Wind: 14mph
Humidity: 92%   Direction: 140°SE
Pressure: 29.41"   Gusts: NA
Location:  39.9268°N, 90.2187°W
Report Text: KIJX 232015Z AUTO 14012KT 7SM -RA OVC006 13/11 A2941 RMK AO2 P0002 T01260113
Loading
Personal Weather Stations






























Interactive Weather Map New forecast layout! Learn more

10-Day Weather Forecast

Advertisements
Track Severe Weather on mobile